Darstellungsparameter: Aktuell verwendete Einstellungen:
Skalierung der Graphiken ... ?
xyx+y,   Skalierungsfaktor:      Skalierung: Modus: x, Faktor: 1
Darstellungszeitraum ... ?
Vom - - bis: - -   Zeitraum: 18.05.2015 - 18.05.2015
Min/Max/Avg-Anzeige ... ?
Zeige MMA aktuell
Zeige MMA Monat
Zeige MMA alles
Zeige --A aktuell
Zeige --A Monat
Zeige --A alles
Keine MMA-Anzeige
MMA:
Minimum Maximum Average (ber die Originaldaten)
MMA-Basis: 18.05.2015 - 18.05.2015
Quicknavigation für Darstellung... ?
Tage:      1T, 2T, 3T, 5T -1T -2T -3T -5T +1T +2T +3T +5T
Wochen: 1W, 2W, 3W -1W -2W -3W +1W +2W +3W
Monate: 1M, 3M, 6M -1M -3M -6M +1M +3M +6M
Jahre:    1J, 3J, 5J, 10J -1J -3J -5J -10J +1J +3J +5J +10J
Nutze für die Darstellung ... ?
Originaldaten oder Mittelwerte auf ...
Stundenbasis Tagesbasis Wochenbasis
Monatsbasis Jahresbasis      Datenbasis: Original-Daten
Darstellen als:
Statistik (Auto) Statistik J:M      Darstellung:
Zur Graphik,    zurück zur Übersicht aller Sensoren.
 
Tabellarische Datenbersicht: ?
 
Sensor: Nr:Datum:Temp:Abs-Feuchte:Windchill:Wind:
Aussen-T/F 1 18-05-2015 00:00:00 11.9 C 8.37 g/m*3 11.9 C 0 km/h
2 18-05-2015 00:05:00 11.8 C 8.31 g/m*3 11.8 C 0 km/h
3 18-05-2015 00:10:00 11.8 C 8.31 g/m*3 11.8 C 0 km/h
4 18-05-2015 00:15:00 11.8 C 8.31 g/m*3 11.8 C 0 km/h
5 18-05-2015 00:20:00 11.7 C 8.37 g/m*3 11.7 C 0 km/h
6 18-05-2015 00:25:00 11.6 C 8.32 g/m*3 11.6 C 0 km/h
7 18-05-2015 00:30:00 11.5 C 8.26 g/m*3 11.5 C 0 km/h
8 18-05-2015 00:35:00 11.3 C 8.16 g/m*3 11.3 C 0 km/h
9 18-05-2015 00:40:00 11.1 C 8.06 g/m*3 11.1 C 0 km/h
10 18-05-2015 00:45:00 10.9 C 8.06 g/m*3 10.9 C 0 km/h
11 18-05-2015 00:50:00 10.8 C 8.11 g/m*3 10.8 C 0 km/h
12 18-05-2015 00:55:00 10.8 C 7.91 g/m*3 10.8 C 0 km/h
13 18-05-2015 01:00:00 10.7 C 7.96 g/m*3 10.7 C 0 km/h
14 18-05-2015 01:05:00 10.7 C 7.96 g/m*3 10.7 C 0 km/h
15 18-05-2015 01:10:00 10.4 C 7.9 g/m*3 10.4 C 0 km/h
16 18-05-2015 01:15:00 10.3 C 7.85 g/m*3 10.3 C 0 km/h
17 18-05-2015 01:20:00 10.3 C 7.85 g/m*3 10.3 C 0 km/h
18 18-05-2015 01:25:00 10.2 C 7.9 g/m*3 10.2 C 0 km/h
19 18-05-2015 01:30:00 10.2 C 7.9 g/m*3 10.2 C 0 km/h
20 18-05-2015 01:35:00 10.1 C 7.75 g/m*3 10.1 C 0 km/h
21 18-05-2015 01:40:00 10.1 C 7.85 g/m*3 10.1 C 0 km/h
22 18-05-2015 01:45:00 10 C 7.8 g/m*3 10 C 0 km/h
23 18-05-2015 01:50:00 9.9 C 7.75 g/m*3 9.9 C 0 km/h
24 18-05-2015 01:55:00 9.9 C 7.75 g/m*3 9.9 C 0 km/h
25 18-05-2015 02:00:00 9.9 C 7.84 g/m*3 9.9 C 0 km/h
Sensor: Nr:Datum:Temp:Abs-Feuchte:Windchill:Wind:
Aussen-T/F 26 18-05-2015 02:05:00 9.8 C 7.7 g/m*3 9.8 C 0 km/h
27 18-05-2015 02:10:00 9.8 C 7.79 g/m*3 9.8 C 0 km/h
28 18-05-2015 02:15:00 9.7 C 7.74 g/m*3 9.7 C 0 km/h
29 18-05-2015 02:20:00 9.7 C 7.84 g/m*3 9.7 C 0 km/h
30 18-05-2015 02:25:00 9.6 C 7.79 g/m*3 9.6 C 1.6 km/h
31 18-05-2015 02:30:00 9.6 C 7.79 g/m*3 9.6 C 1.6 km/h
32 18-05-2015 02:35:00 9.5 C 7.74 g/m*3 9.5 C 0 km/h
33 18-05-2015 02:40:00 9.4 C 7.78 g/m*3 9.4 C 0 km/h
34 18-05-2015 02:45:00 9.3 C 7.73 g/m*3 9.3 C 0 km/h
35 18-05-2015 02:50:00 9.2 C 7.68 g/m*3 9.2 C 0 km/h
36 18-05-2015 02:55:00 9.1 C 7.63 g/m*3 9.1 C 0 km/h
37 18-05-2015 03:00:00 9.1 C 7.72 g/m*3 9.1 C 0 km/h
38 18-05-2015 03:05:00 8.9 C 7.62 g/m*3 8.9 C 0 km/h
39 18-05-2015 03:10:00 8.9 C 7.62 g/m*3 8.9 C 0 km/h
40 18-05-2015 03:15:00 8.8 C 7.57 g/m*3 8.8 C 0 km/h
41 18-05-2015 03:20:00 8.7 C 7.61 g/m*3 8.7 C 0 km/h
42 18-05-2015 03:25:00 8.6 C 7.56 g/m*3 8.6 C 0 km/h
43 18-05-2015 03:30:00 8.5 C 7.6 g/m*3 8.5 C 0 km/h
44 18-05-2015 03:35:00 8.4 C 7.55 g/m*3 8.4 C 0 km/h
45 18-05-2015 03:40:00 8.3 C 7.5 g/m*3 8.3 C 0 km/h
46 18-05-2015 03:45:00 8.3 C 7.59 g/m*3 8.3 C 0 km/h
47 18-05-2015 03:50:00 8.3 C 7.59 g/m*3 8.3 C 0 km/h
48 18-05-2015 03:55:00 8.3 C 7.59 g/m*3 8.3 C 0 km/h
49 18-05-2015 04:00:00 8.2 C 7.54 g/m*3 8.2 C 0 km/h
50 18-05-2015 04:05:00 8.2 C 7.54 g/m*3 8.2 C 0 km/h
Sensor: Nr:Datum:Temp:Abs-Feuchte:Windchill:Wind:
Aussen-T/F 51 18-05-2015 04:10:00 8.1 C 7.49 g/m*3 8.1 C 0 km/h
52 18-05-2015 04:15:00 8.1 C 7.49 g/m*3 8.1 C 0 km/h
53 18-05-2015 04:20:00 8 C 7.44 g/m*3 8 C 0 km/h
54 18-05-2015 04:25:00 7.9 C 7.39 g/m*3 7.9 C 0 km/h
55 18-05-2015 04:30:00 7.8 C 7.35 g/m*3 7.8 C 0 km/h
56 18-05-2015 04:35:00 7.8 C 7.43 g/m*3 7.8 C 0 km/h
57 18-05-2015 04:40:00 7.8 C 7.43 g/m*3 7.8 C 0 km/h
58 18-05-2015 04:45:00 7.7 C 7.38 g/m*3 7.7 C 0 km/h
59 18-05-2015 04:50:00 7.7 C 7.38 g/m*3 7.7 C 0 km/h
60 18-05-2015 04:55:00 7.6 C 7.33 g/m*3 7.6 C 0 km/h
61 18-05-2015 05:00:00 7.6 C 7.33 g/m*3 7.6 C 0 km/h
62 18-05-2015 05:05:00 7.5 C 7.28 g/m*3 7.5 C 0 km/h
63 18-05-2015 05:10:00 7.4 C 7.24 g/m*3 7.4 C 0 km/h
64 18-05-2015 05:15:00 7.4 C 7.24 g/m*3 7.4 C 0 km/h
65 18-05-2015 05:20:00 7.4 C 7.32 g/m*3 7.4 C 0 km/h
66 18-05-2015 05:25:00 7.3 C 7.27 g/m*3 7.3 C 0 km/h
67 18-05-2015 05:30:00 7.3 C 7.27 g/m*3 7.3 C 1.6 km/h
68 18-05-2015 05:35:00 7.3 C 7.27 g/m*3 7.3 C 0 km/h
69 18-05-2015 05:40:00 7.2 C 7.22 g/m*3 7.2 C 0 km/h
70 18-05-2015 05:45:00 7.2 C 7.22 g/m*3 7.2 C 0 km/h
71 18-05-2015 05:50:00 7.2 C 7.22 g/m*3 7.2 C 0 km/h
72 18-05-2015 05:55:00 7.1 C 7.18 g/m*3 7.1 C 0 km/h
73 18-05-2015 06:00:00 7.1 C 7.18 g/m*3 7.1 C 0 km/h
74 18-05-2015 06:05:00 7.1 C 7.25 g/m*3 7.1 C 0 km/h
75 18-05-2015 06:10:00 7.1 C 7.25 g/m*3 7.1 C 0 km/h
Sensor: Nr:Datum:Temp:Abs-Feuchte:Windchill:Wind:
Aussen-T/F 76 18-05-2015 06:15:00 7.1 C 7.25 g/m*3 7.1 C 0 km/h
77 18-05-2015 06:20:00 7.1 C 7.25 g/m*3 7.1 C 0 km/h
78 18-05-2015 06:25:00 7.1 C 7.25 g/m*3 7.1 C 0 km/h
79 18-05-2015 06:30:00 7.1 C 7.25 g/m*3 7.1 C 0 km/h
80 18-05-2015 06:35:00 7.1 C 7.25 g/m*3 7.1 C 0 km/h
81 18-05-2015 06:40:00 7.1 C 7.25 g/m*3 7.1 C 0 km/h
82 18-05-2015 06:45:00 7.1 C 7.25 g/m*3 7.1 C 0 km/h
83 18-05-2015 06:50:00 7.1 C 7.25 g/m*3 7.1 C 0 km/h
84 18-05-2015 06:55:00 7.2 C 7.3 g/m*3 7.2 C 0 km/h
85 18-05-2015 07:00:00 7.2 C 7.3 g/m*3 7.2 C 0 km/h
86 18-05-2015 07:05:00 7.3 C 7.35 g/m*3 7.3 C 0 km/h
87 18-05-2015 07:10:00 7.3 C 7.35 g/m*3 7.3 C 0 km/h
88 18-05-2015 07:15:00 7.3 C 7.35 g/m*3 7.3 C 0 km/h
89 18-05-2015 07:20:00 7.4 C 7.48 g/m*3 7.4 C 0 km/h
90 18-05-2015 07:25:00 7.5 C 7.44 g/m*3 7.5 C 0 km/h
91 18-05-2015 07:30:00 7.6 C 7.49 g/m*3 7.6 C 0 km/h
92 18-05-2015 07:35:00 7.6 C 7.57 g/m*3 7.6 C 1.6 km/h
93 18-05-2015 07:40:00 7.7 C 7.54 g/m*3 7.7 C 1.6 km/h
94 18-05-2015 07:45:00 7.8 C 7.59 g/m*3 7.8 C 1.6 km/h
95 18-05-2015 07:50:00 7.9 C 7.64 g/m*3 7.9 C 0 km/h
96 18-05-2015 07:55:00 7.9 C 7.64 g/m*3 7.9 C 0 km/h
97 18-05-2015 08:00:00 8 C 7.69 g/m*3 8 C 0 km/h
98 18-05-2015 08:05:00 8.2 C 7.79 g/m*3 8.2 C 0 km/h
99 18-05-2015 08:10:00 8.4 C 7.8 g/m*3 8.4 C 0 km/h
100 18-05-2015 08:15:00 8.8 C 8.01 g/m*3 8.8 C 0 km/h
Sensor: Nr:Datum:Temp:Abs-Feuchte:Windchill:Wind:
Aussen-T/F 101 18-05-2015 08:20:00 9.1 C 8.16 g/m*3 9.1 C 0 km/h
102 18-05-2015 08:25:00 9.3 C 8.18 g/m*3 9.3 C 0 km/h
103 18-05-2015 08:30:00 9.7 C 8.3 g/m*3 9.7 C 0 km/h
104 18-05-2015 08:35:00 9.9 C 8.31 g/m*3 9.9 C 0 km/h
105 18-05-2015 08:40:00 10.2 C 8.47 g/m*3 10.2 C 0 km/h
106 18-05-2015 08:45:00 10.6 C 8.59 g/m*3 10.6 C 0 km/h
107 18-05-2015 08:50:00 10.7 C 8.55 g/m*3 10.7 C 0 km/h
108 18-05-2015 08:55:00 10.8 C 8.6 g/m*3 10.8 C 0 km/h
109 18-05-2015 09:00:00 10.8 C 8.6 g/m*3 10.8 C 0 km/h
110 18-05-2015 09:05:00 10.8 C 8.7 g/m*3 10.8 C 0 km/h
111 18-05-2015 09:10:00 10.9 C 8.75 g/m*3 10.9 C 1.6 km/h
112 18-05-2015 09:15:00 11.1 C 8.76 g/m*3 11.1 C 0 km/h
113 18-05-2015 09:20:00 11.3 C 8.77 g/m*3 11.3 C 0 km/h
114 18-05-2015 09:25:00 11.4 C 8.83 g/m*3 11.4 C 0 km/h
115 18-05-2015 09:30:00 11.7 C 8.89 g/m*3 11.7 C 0 km/h
116 18-05-2015 09:35:00 11.9 C 9.11 g/m*3 11.9 C 0 km/h
117 18-05-2015 09:40:00 11.9 C 9 g/m*3 11.9 C 1.6 km/h
118 18-05-2015 09:45:00 12.1 C 9.22 g/m*3 12.1 C 0 km/h
119 18-05-2015 09:50:00 12.2 C 9.17 g/m*3 12.2 C 3.2 km/h
120 18-05-2015 09:55:00 12.4 C 9.4 g/m*3 12.4 C 3.2 km/h
121 18-05-2015 10:00:00 12.7 C 9.57 g/m*3 12.7 C 1.6 km/h
122 18-05-2015 10:05:00 13 C 9.53 g/m*3 13 C 4.8 km/h
123 18-05-2015 10:10:00 13.5 C 9.59 g/m*3 13.5 C 3.2 km/h
124 18-05-2015 10:15:00 14.2 C 9.28 g/m*3 14.2 C 12.9 km/h
125 18-05-2015 10:20:00 15.1 C 9.29 g/m*3 15.1 C 11.3 km/h
Sensor: Nr:Datum:Temp:Abs-Feuchte:Windchill:Wind:
Aussen-T/F 126 18-05-2015 10:25:00 15.7 C 9.23 g/m*3 15.7 C 12.9 km/h
127 18-05-2015 10:30:00 15.9 C 9.07 g/m*3 15.9 C 9.7 km/h
128 18-05-2015 10:35:00 16.3 C 9.57 g/m*3 16.3 C 9.7 km/h
129 18-05-2015 10:40:00 16.6 C 9.18 g/m*3 16.6 C 16.1 km/h
130 18-05-2015 10:45:00 16.7 C 9.24 g/m*3 16.7 C 16.1 km/h
131 18-05-2015 10:50:00 16.9 C 9.06 g/m*3 16.9 C 16.1 km/h
132 18-05-2015 10:55:00 17 C 8.97 g/m*3 17 C 9.7 km/h
133 18-05-2015 11:00:00 17.2 C 9.08 g/m*3 17.2 C 6.4 km/h
134 18-05-2015 11:05:00 17.4 C 9.04 g/m*3 17.4 C 17.7 km/h
135 18-05-2015 11:10:00 17.5 C 8.95 g/m*3 17.5 C 17.7 km/h
136 18-05-2015 11:15:00 17.6 C 9 g/m*3 17.6 C 16.1 km/h
137 18-05-2015 11:20:00 17.8 C 8.95 g/m*3 17.8 C 12.9 km/h
138 18-05-2015 11:25:00 18.1 C 9.12 g/m*3 18.1 C 12.9 km/h
139 18-05-2015 11:30:00 18.2 C 8.55 g/m*3 18.2 C 17.7 km/h
140 18-05-2015 11:35:00 18.2 C 8.7 g/m*3 18.2 C 17.7 km/h
141 18-05-2015 11:40:00 18.2 C 8.55 g/m*3 18.2 C 14.5 km/h
142 18-05-2015 11:45:00 18.2 C 8.39 g/m*3 18.2 C 17.7 km/h
143 18-05-2015 11:50:00 18.1 C 8.65 g/m*3 18.1 C 17.7 km/h
144 18-05-2015 11:55:00 18.3 C 8.76 g/m*3 18.3 C 16.1 km/h
145 18-05-2015 12:00:00 18.5 C 8.54 g/m*3 18.5 C 17.7 km/h
146 18-05-2015 12:05:00 18.6 C 8.28 g/m*3 18.6 C 16.1 km/h
147 18-05-2015 12:10:00 18.6 C 8.12 g/m*3 18.6 C 16.1 km/h
148 18-05-2015 12:15:00 18.6 C 8.28 g/m*3 18.6 C 19.3 km/h
149 18-05-2015 12:20:00 18.8 C 8.54 g/m*3 18.8 C 16.1 km/h
150 18-05-2015 12:25:00 18.8 C 8.54 g/m*3 18.8 C 14.5 km/h
Sensor: Nr:Datum:Temp:Abs-Feuchte:Windchill:Wind:
Aussen-T/F 151 18-05-2015 12:30:00 18.9 C 8.91 g/m*3 18.9 C 14.5 km/h
152 18-05-2015 12:35:00 19.1 C 8.69 g/m*3 19.1 C 12.9 km/h
153 18-05-2015 12:40:00 19.2 C 8.41 g/m*3 19.2 C 19.3 km/h
154 18-05-2015 12:45:00 19.2 C 8.24 g/m*3 19.2 C 16.1 km/h
155 18-05-2015 12:50:00 19.3 C 8.29 g/m*3 19.3 C 16.1 km/h
156 18-05-2015 12:55:00 19.3 C 8.29 g/m*3 19.3 C 8.1 km/h
157 18-05-2015 13:00:00 19.4 C 8.18 g/m*3 19.4 C 17.7 km/h
158 18-05-2015 13:05:00 19.6 C 8.27 g/m*3 19.6 C 11.3 km/h
159 18-05-2015 13:10:00 19.8 C 8.37 g/m*3 19.8 C 12.9 km/h
160 18-05-2015 13:15:00 20.2 C 8.57 g/m*3 20.2 C 11.3 km/h
161 18-05-2015 13:20:00 20.5 C 8.36 g/m*3 20.5 C 16.1 km/h
162 18-05-2015 13:25:00 20.7 C 8.28 g/m*3 20.7 C 14.5 km/h
163 18-05-2015 13:30:00 20.7 C 7.92 g/m*3 20.7 C 17.7 km/h
164 18-05-2015 13:35:00 20.8 C 8.15 g/m*3 20.8 C 14.5 km/h
165 18-05-2015 13:40:00 20.9 C 8.2 g/m*3 20.9 C 22.5 km/h
166 18-05-2015 13:45:00 21.2 C 7.97 g/m*3 21.2 C 12.9 km/h
167 18-05-2015 13:50:00 21.3 C 7.64 g/m*3 21.3 C 27.4 km/h
168 18-05-2015 13:55:00 21.4 C 7.87 g/m*3 21.4 C 12.9 km/h
169 18-05-2015 14:00:00 21.4 C 8.06 g/m*3 21.4 C 16.1 km/h
170 18-05-2015 14:05:00 21.6 C 8.35 g/m*3 21.6 C 12.9 km/h
171 18-05-2015 14:10:00 21.6 C 8.16 g/m*3 21.6 C 14.5 km/h
172 18-05-2015 14:15:00 21.8 C 8.06 g/m*3 21.8 C 12.9 km/h
173 18-05-2015 14:20:00 22 C 7.96 g/m*3 22 C 14.5 km/h
174 18-05-2015 14:25:00 22.1 C 8 g/m*3 22.1 C 14.5 km/h
175 18-05-2015 14:30:00 22 C 7.76 g/m*3 22 C 14.5 km/h
Sensor: Nr:Datum:Temp:Abs-Feuchte:Windchill:Wind:
Aussen-T/F 176 18-05-2015 14:35:00 22.1 C 7.42 g/m*3 22.1 C 16.1 km/h
177 18-05-2015 14:40:00 22.2 C 7.66 g/m*3 22.2 C 19.3 km/h
178 18-05-2015 14:45:00 22.3 C 7.31 g/m*3 22.3 C 16.1 km/h
179 18-05-2015 14:50:00 22.2 C 7.07 g/m*3 22.2 C 20.9 km/h
180 18-05-2015 14:55:00 22.3 C 7.11 g/m*3 22.3 C 19.3 km/h
181 18-05-2015 15:00:00 22.2 C 7.07 g/m*3 22.2 C 27.4 km/h
182 18-05-2015 15:05:00 22.1 C 7.22 g/m*3 22.1 C 24.1 km/h
183 18-05-2015 15:10:00 22.2 C 7.07 g/m*3 22.2 C 19.3 km/h
184 18-05-2015 15:15:00 22.3 C 7.31 g/m*3 22.3 C 17.7 km/h
185 18-05-2015 15:20:00 22.7 C 7.27 g/m*3 22.7 C 14.5 km/h
186 18-05-2015 15:25:00 22.9 C 7.36 g/m*3 22.9 C 17.7 km/h
187 18-05-2015 15:30:00 22.8 C 7.32 g/m*3 22.8 C 12.9 km/h
188 18-05-2015 15:35:00 23 C 7.4 g/m*3 23 C 19.3 km/h
189 18-05-2015 15:40:00 23.3 C 7.11 g/m*3 23.3 C 9.7 km/h
190 18-05-2015 15:45:00 23.4 C 7.15 g/m*3 23.4 C 22.5 km/h
191 18-05-2015 15:50:00 23.3 C 7.74 g/m*3 23.3 C 14.5 km/h
192 18-05-2015 15:55:00 23.2 C 7.69 g/m*3 23.2 C 14.5 km/h
193 18-05-2015 16:00:00 23.2 C 7.48 g/m*3 23.2 C 24.1 km/h
194 18-05-2015 16:05:00 23.3 C 7.95 g/m*3 23.3 C 11.3 km/h
195 18-05-2015 16:10:00 23.5 C 7.4 g/m*3 23.5 C 16.1 km/h
196 18-05-2015 16:15:00 23.4 C 7.36 g/m*3 23.4 C 17.7 km/h
197 18-05-2015 16:20:00 23.3 C 7.74 g/m*3 23.3 C 9.7 km/h
198 18-05-2015 16:25:00 23.4 C 7.36 g/m*3 23.4 C 16.1 km/h
199 18-05-2015 16:30:00 23.5 C 7.61 g/m*3 23.5 C 17.7 km/h
200 18-05-2015 16:35:00 23.4 C 7.15 g/m*3 23.4 C 14.5 km/h
Sensor: Nr:Datum:Temp:Abs-Feuchte:Windchill:Wind:
Aussen-T/F 201 18-05-2015 16:40:00 23.4 C 7.57 g/m*3 23.4 C 16.1 km/h
202 18-05-2015 16:45:00 23.6 C 7.44 g/m*3 23.6 C 12.9 km/h
203 18-05-2015 16:50:00 23.7 C 7.7 g/m*3 23.7 C 16.1 km/h
204 18-05-2015 16:55:00 23.4 C 7.36 g/m*3 23.4 C 12.9 km/h
205 18-05-2015 17:00:00 23.1 C 7.44 g/m*3 23.1 C 11.3 km/h
206 18-05-2015 17:05:00 23.1 C 7.86 g/m*3 23.1 C 12.9 km/h
207 18-05-2015 17:10:00 23.4 C 7.78 g/m*3 23.4 C 14.5 km/h
208 18-05-2015 17:15:00 23.5 C 7.4 g/m*3 23.5 C 14.5 km/h
209 18-05-2015 17:20:00 23.4 C 7.57 g/m*3 23.4 C 14.5 km/h
210 18-05-2015 17:25:00 23.4 C 7.36 g/m*3 23.4 C 17.7 km/h
211 18-05-2015 17:30:00 23.2 C 7.48 g/m*3 23.2 C 17.7 km/h
212 18-05-2015 17:35:00 23.2 C 7.69 g/m*3 23.2 C 16.1 km/h
213 18-05-2015 17:40:00 23.3 C 7.74 g/m*3 23.3 C 12.9 km/h
214 18-05-2015 17:45:00 23.7 C 7.7 g/m*3 23.7 C 17.7 km/h
215 18-05-2015 17:50:00 23.8 C 7.74 g/m*3 23.8 C 16.1 km/h
216 18-05-2015 17:55:00 23.6 C 7.44 g/m*3 23.6 C 12.9 km/h
217 18-05-2015 18:00:00 23.1 C 7.44 g/m*3 23.1 C 17.7 km/h
218 18-05-2015 18:05:00 22.8 C 7.72 g/m*3 22.8 C 12.9 km/h
219 18-05-2015 18:10:00 22.7 C 7.68 g/m*3 22.7 C 14.5 km/h
220 18-05-2015 18:15:00 22.4 C 7.55 g/m*3 22.4 C 14.5 km/h
221 18-05-2015 18:20:00 22.3 C 7.7 g/m*3 22.3 C 11.3 km/h
222 18-05-2015 18:25:00 22.4 C 7.55 g/m*3 22.4 C 17.7 km/h
223 18-05-2015 18:30:00 22.6 C 7.63 g/m*3 22.6 C 8.1 km/h
224 18-05-2015 18:35:00 22.6 C 7.83 g/m*3 22.6 C 11.3 km/h
225 18-05-2015 18:40:00 22.3 C 7.5 g/m*3 22.3 C 9.7 km/h
Sensor: Nr:Datum:Temp:Abs-Feuchte:Windchill:Wind:
Aussen-T/F 226 18-05-2015 18:45:00 22.2 C 7.66 g/m*3 22.2 C 6.4 km/h
227 18-05-2015 18:50:00 22.2 C 7.66 g/m*3 22.2 C 9.7 km/h
228 18-05-2015 18:55:00 22.4 C 7.75 g/m*3 22.4 C 12.9 km/h
229 18-05-2015 19:00:00 22.7 C 7.68 g/m*3 22.7 C 17.7 km/h
230 18-05-2015 19:05:00 22.3 C 7.5 g/m*3 22.3 C 17.7 km/h
231 18-05-2015 19:10:00 21.9 C 7.72 g/m*3 21.9 C 8.1 km/h
232 18-05-2015 19:15:00 21.6 C 7.78 g/m*3 21.6 C 9.7 km/h
233 18-05-2015 19:20:00 21.6 C 8.16 g/m*3 21.6 C 9.7 km/h
234 18-05-2015 19:25:00 21.5 C 8.11 g/m*3 21.5 C 6.4 km/h
235 18-05-2015 19:30:00 21.5 C 8.3 g/m*3 21.5 C 11.3 km/h
236 18-05-2015 19:35:00 21.6 C 7.97 g/m*3 21.6 C 17.7 km/h
237 18-05-2015 19:40:00 21.5 C 8.11 g/m*3 21.5 C 8.1 km/h
238 18-05-2015 19:45:00 21.3 C 8.2 g/m*3 21.3 C 14.5 km/h
239 18-05-2015 19:50:00 21.1 C 8.11 g/m*3 21.1 C 6.4 km/h
240 18-05-2015 19:55:00 20.9 C 8.56 g/m*3 20.9 C 1.6 km/h
241 18-05-2015 20:00:00 20.6 C 8.41 g/m*3 20.6 C 1.6 km/h
242 18-05-2015 20:05:00 20.3 C 8.27 g/m*3 20.3 C 4.8 km/h
243 18-05-2015 20:10:00 20.2 C 9.09 g/m*3 20.2 C 0 km/h
244 18-05-2015 20:15:00 20 C 8.47 g/m*3 20 C 9.7 km/h
245 18-05-2015 20:20:00 19.8 C 8.37 g/m*3 19.8 C 4.8 km/h
246 18-05-2015 20:25:00 19.7 C 8.66 g/m*3 19.7 C 3.2 km/h
247 18-05-2015 20:30:00 19.4 C 8.84 g/m*3 19.4 C 1.6 km/h
248 18-05-2015 20:35:00 19.3 C 8.29 g/m*3 19.3 C 4.8 km/h
249 18-05-2015 20:40:00 19.2 C 8.24 g/m*3 19.2 C 3.2 km/h
250 18-05-2015 20:45:00 19.1 C 8.2 g/m*3 19.1 C 3.2 km/h
Sensor: Nr:Datum:Temp:Abs-Feuchte:Windchill:Wind:
Aussen-T/F 251 18-05-2015 20:50:00 19.1 C 8.52 g/m*3 19.1 C 4.8 km/h
252 18-05-2015 20:55:00 18.8 C 8.37 g/m*3 18.8 C 3.2 km/h
253 18-05-2015 21:00:00 18.6 C 8.28 g/m*3 18.6 C 3.2 km/h
254 18-05-2015 21:05:00 18.4 C 8.34 g/m*3 18.4 C 1.6 km/h
255 18-05-2015 21:10:00 18.2 C 8.55 g/m*3 18.2 C 3.2 km/h
256 18-05-2015 21:15:00 17.9 C 8.24 g/m*3 17.9 C 3.2 km/h
257 18-05-2015 21:20:00 17.8 C 8.35 g/m*3 17.8 C 1.6 km/h
258 18-05-2015 21:25:00 17.7 C 8.15 g/m*3 17.7 C 1.6 km/h
259 18-05-2015 21:30:00 17.6 C 8.25 g/m*3 17.6 C 1.6 km/h
260 18-05-2015 21:35:00 17.5 C 8.2 g/m*3 17.5 C 3.2 km/h
261 18-05-2015 21:40:00 17.4 C 8.6 g/m*3 17.4 C 1.6 km/h
262 18-05-2015 21:45:00 17.2 C 8.2 g/m*3 17.2 C 1.6 km/h
263 18-05-2015 21:50:00 17 C 8.54 g/m*3 17 C 4.8 km/h
264 18-05-2015 21:55:00 16.8 C 8.58 g/m*3 16.8 C 1.6 km/h
265 18-05-2015 22:00:00 16.7 C 8.67 g/m*3 16.7 C 0 km/h
266 18-05-2015 22:05:00 16.4 C 8.65 g/m*3 16.4 C 1.6 km/h
267 18-05-2015 22:10:00 16.3 C 8.6 g/m*3 16.3 C 1.6 km/h
268 18-05-2015 22:15:00 16.1 C 8.36 g/m*3 16.1 C 3.2 km/h
269 18-05-2015 22:20:00 16.1 C 8.5 g/m*3 16.1 C 1.6 km/h
270 18-05-2015 22:25:00 15.9 C 8.67 g/m*3 15.9 C 1.6 km/h
271 18-05-2015 22:30:00 15.8 C 8.75 g/m*3 15.8 C 4.8 km/h
272 18-05-2015 22:35:00 15.7 C 8.7 g/m*3 15.7 C 1.6 km/h
273 18-05-2015 22:40:00 15.5 C 8.72 g/m*3 15.5 C 0 km/h
274 18-05-2015 22:45:00 15.3 C 8.62 g/m*3 15.3 C 1.6 km/h
275 18-05-2015 22:50:00 15.2 C 8.57 g/m*3 15.2 C 1.6 km/h
Sensor: Nr:Datum:Temp:Abs-Feuchte:Windchill:Wind:
Aussen-T/F 276 18-05-2015 22:55:00 15.1 C 8.77 g/m*3 15.1 C 0 km/h
277 18-05-2015 23:00:00 15.1 C 8.77 g/m*3 15.1 C 4.8 km/h
278 18-05-2015 23:05:00 15 C 8.59 g/m*3 15 C 0 km/h
279 18-05-2015 23:10:00 14.8 C 8.61 g/m*3 14.8 C 0 km/h
280 18-05-2015 23:15:00 14.8 C 8.61 g/m*3 14.8 C 1.6 km/h
281 18-05-2015 23:20:00 14.7 C 8.69 g/m*3 14.7 C 0 km/h
282 18-05-2015 23:25:00 14.6 C 8.63 g/m*3 14.6 C 0 km/h
283 18-05-2015 23:30:00 14.4 C 8.65 g/m*3 14.4 C 1.6 km/h
284 18-05-2015 23:35:00 14.3 C 8.6 g/m*3 14.3 C 0 km/h
285 18-05-2015 23:40:00 14.2 C 8.67 g/m*3 14.2 C 0 km/h
286 18-05-2015 23:45:00 13.9 C 8.51 g/m*3 13.9 C 0 km/h
287 18-05-2015 23:50:00 13.8 C 8.58 g/m*3 13.8 C 1.6 km/h
288 18-05-2015 23:55:00 13.6 C 8.47 g/m*3 13.6 C 0 km/h

Legende:
   Min
   Max


Maximal/Minimal-Werte vom 18.05.2015 - 18.05.2015

Sensor Min Max Avg
Temp
(Aussen-T/F)
7.1 °C
18-05-2015  05:55:00
23.8 °C
18-05-2015  17:50:00
15.28 °C
Abs-Feuchte
(Aussen-T/F)
7.07 g/m*3
18-05-2015  14:50:00
9.59 g/m*3
18-05-2015  10:10:00
8 g/m*3
Windchill
(Aussen-T/F)
7.1 C
18-05-2015  05:55:00
23.8 C
18-05-2015  17:50:00
15.22 C

Die Daten stammen von einer Davis Vantage Pro 2 Wetter-Station und werden unter Linux mit der Software wview2wettercgi und aufbereitet. Alle Angaben erfolgen ohne Gewähr für ihre Vollständigkeit oder Richtigkeit.
Kontakt: Rainer Krienke krienke@uni-koblenz.de . Meine Webseiten an der Uni Koblenz oder privat.
Version: $Revision: 0.78 $